sensor_id;sensor_type;location;lat;lon;timestamp;P1;durP1;ratioP1;P2;durP2;ratioP2
69152;SDS011;56261;51.580;4.578;2022-08-01T00:01:33;26.73;;;12.35;;
69152;SDS011;56261;51.580;4.578;2022-08-01T00:03:58;25.10;;;12.97;;
69152;SDS011;56261;51.580;4.578;2022-08-01T00:06:23;24.10;;;12.57;;
69152;SDS011;56261;51.580;4.578;2022-08-01T00:08:49;26.17;;;12.23;;
69152;SDS011;56261;51.580;4.578;2022-08-01T00:11:14;22.70;;;11.80;;
69152;SDS011;56261;51.580;4.578;2022-08-01T00:13:40;27.33;;;12.10;;
69152;SDS011;56261;51.580;4.578;2022-08-01T00:16:05;25.83;;;11.57;;
69152;SDS011;56261;51.580;4.578;2022-08-01T00:18:31;23.80;;;12.55;;
69152;SDS011;56261;51.580;4.578;2022-08-01T00:20:56;25.90;;;13.37;;
69152;SDS011;56261;51.580;4.578;2022-08-01T00:23:22;26.77;;;13.33;;
69152;SDS011;56261;51.580;4.578;2022-08-01T00:25:47;26.80;;;13.23;;
69152;SDS011;56261;51.580;4.578;2022-08-01T00:28:13;26.67;;;13.10;;
69152;SDS011;56261;51.580;4.578;2022-08-01T00:30:38;29.25;;;13.82;;
69152;SDS011;56261;51.580;4.578;2022-08-01T00:33:04;28.23;;;14.07;;
69152;SDS011;56261;51.580;4.578;2022-08-01T00:35:30;25.05;;;12.70;;
69152;SDS011;56261;51.580;4.578;2022-08-01T00:37:55;29.93;;;13.70;;
69152;SDS011;56261;51.580;4.578;2022-08-01T00:40:20;25.87;;;12.50;;
69152;SDS011;56261;51.580;4.578;2022-08-01T00:42:46;26.40;;;12.50;;
69152;SDS011;56261;51.580;4.578;2022-08-01T00:45:12;28.17;;;13.07;;
69152;SDS011;56261;51.580;4.578;2022-08-01T00:47:37;26.95;;;12.63;;
69152;SDS011;56261;51.580;4.578;2022-08-01T00:50:03;25.17;;;12.37;;
69152;SDS011;56261;51.580;4.578;2022-08-01T00:52:30;28.08;;;13.00;;
69152;SDS011;56261;51.580;4.578;2022-08-01T00:54:55;27.15;;;13.10;;
69152;SDS011;56261;51.580;4.578;2022-08-01T00:57:21;35.60;;;14.40;;
69152;SDS011;56261;51.580;4.578;2022-08-01T00:59:46;28.87;;;12.87;;
69152;SDS011;56261;51.580;4.578;2022-08-01T01:02:12;32.95;;;14.00;;
69152;SDS011;56261;51.580;4.578;2022-08-01T01:04:38;30.50;;;13.50;;
69152;SDS011;56261;51.580;4.578;2022-08-01T01:07:06;24.92;;;12.45;;
69152;SDS011;56261;51.580;4.578;2022-08-01T01:15:43;25.30;;;10.85;;
69152;SDS011;56261;51.580;4.578;2022-08-01T01:20:52;25.45;;;11.18;;
69152;SDS011;56261;51.580;4.578;2022-08-01T01:32:06;24.80;;;12.10;;
69152;SDS011;56261;51.580;4.578;2022-08-01T01:34:38;27.38;;;12.15;;
69152;SDS011;56261;51.580;4.578;2022-08-01T01:37:08;27.47;;;12.40;;
69152;SDS011;56261;51.580;4.578;2022-08-01T01:39:37;29.67;;;12.50;;
69152;SDS011;56261;51.580;4.578;2022-08-01T01:42:05;23.90;;;11.43;;
69152;SDS011;56261;51.580;4.578;2022-08-01T01:44:31;26.75;;;11.63;;
69152;SDS011;56261;51.580;4.578;2022-08-01T01:46:58;25.48;;;11.43;;
69152;SDS011;56261;51.580;4.578;2022-08-01T01:49:25;25.67;;;10.97;;
69152;SDS011;56261;51.580;4.578;2022-08-01T01:51:54;25.70;;;12.45;;
69152;SDS011;56261;51.580;4.578;2022-08-01T01:54:22;25.35;;;12.20;;
69152;SDS011;56261;51.580;4.578;2022-08-01T01:56:53;25.48;;;12.32;;
69152;SDS011;56261;51.580;4.578;2022-08-01T01:59:24;27.70;;;12.68;;
69152;SDS011;56261;51.580;4.578;2022-08-01T02:01:52;26.40;;;12.40;;
69152;SDS011;56261;51.580;4.578;2022-08-01T02:04:20;22.00;;;11.48;;
69152;SDS011;56261;51.580;4.578;2022-08-01T02:06:47;24.98;;;10.50;;
69152;SDS011;56261;51.580;4.578;2022-08-01T02:09:17;25.35;;;11.55;;
69152;SDS011;56261;51.580;4.578;2022-08-01T02:11:48;19.92;;;9.45;;
69152;SDS011;56261;51.580;4.578;2022-08-01T02:14:15;21.00;;;9.60;;
69152;SDS011;56261;51.580;4.578;2022-08-01T02:16:44;19.55;;;9.38;;
69152;SDS011;56261;51.580;4.578;2022-08-01T02:19:12;22.33;;;10.20;;
69152;SDS011;56261;51.580;4.578;2022-08-01T02:21:44;23.57;;;9.57;;
69152;SDS011;56261;51.580;4.578;2022-08-01T02:27:11;17.42;;;9.38;;
69152;SDS011;56261;51.580;4.578;2022-08-01T02:29:41;19.33;;;9.95;;
69152;SDS011;56261;51.580;4.578;2022-08-01T02:32:14;18.35;;;9.55;;
69152;SDS011;56261;51.580;4.578;2022-08-01T02:34:48;19.55;;;9.30;;
69152;SDS011;56261;51.580;4.578;2022-08-01T02:37:15;18.57;;;8.97;;
69152;SDS011;56261;51.580;4.578;2022-08-01T02:39:43;19.27;;;8.98;;
69152;SDS011;56261;51.580;4.578;2022-08-01T02:42:12;19.23;;;8.75;;
69152;SDS011;56261;51.580;4.578;2022-08-01T02:44:41;17.10;;;8.80;;
69152;SDS011;56261;51.580;4.578;2022-08-01T02:47:08;19.33;;;9.05;;
69152;SDS011;56261;51.580;4.578;2022-08-01T02:49:36;18.83;;;9.90;;
69152;SDS011;56261;51.580;4.578;2022-08-01T02:52:07;19.00;;;9.38;;
69152;SDS011;56261;51.580;4.578;2022-08-01T02:54:34;19.50;;;9.52;;
69152;SDS011;56261;51.580;4.578;2022-08-01T02:57:02;17.63;;;9.75;;
69152;SDS011;56261;51.580;4.578;2022-08-01T02:59:31;18.98;;;9.85;;
69152;SDS011;56261;51.580;4.578;2022-08-01T03:01:59;20.07;;;10.67;;
69152;SDS011;56261;51.580;4.578;2022-08-01T03:04:26;20.13;;;10.27;;
69152;SDS011;56261;51.580;4.578;2022-08-01T03:06:53;21.58;;;10.13;;
69152;SDS011;56261;51.580;4.578;2022-08-01T03:09:20;19.17;;;10.48;;
69152;SDS011;56261;51.580;4.578;2022-08-01T03:11:46;16.17;;;8.60;;
69152;SDS011;56261;51.580;4.578;2022-08-01T03:14:14;16.60;;;8.20;;
69152;SDS011;56261;51.580;4.578;2022-08-01T03:16:41;16.20;;;8.02;;
69152;SDS011;56261;51.580;4.578;2022-08-01T03:19:09;14.23;;;7.03;;
69152;SDS011;56261;51.580;4.578;2022-08-01T03:21:37;17.13;;;7.65;;
69152;SDS011;56261;51.580;4.578;2022-08-01T03:24:05;14.48;;;6.85;;
69152;SDS011;56261;51.580;4.578;2022-08-01T03:26:33;14.53;;;7.63;;
69152;SDS011;56261;51.580;4.578;2022-08-01T03:29:04;15.52;;;7.45;;
69152;SDS011;56261;51.580;4.578;2022-08-01T03:31:33;14.07;;;6.72;;
69152;SDS011;56261;51.580;4.578;2022-08-01T03:34:00;14.18;;;7.43;;
69152;SDS011;56261;51.580;4.578;2022-08-01T03:36:26;17.47;;;7.43;;
69152;SDS011;56261;51.580;4.578;2022-08-01T03:38:54;15.25;;;7.60;;
69152;SDS011;56261;51.580;4.578;2022-08-01T03:41:22;17.25;;;8.60;;
69152;SDS011;56261;51.580;4.578;2022-08-01T03:43:55;16.50;;;7.90;;
69152;SDS011;56261;51.580;4.578;2022-08-01T03:46:36;16.93;;;8.10;;
69152;SDS011;56261;51.580;4.578;2022-08-01T03:49:11;18.02;;;8.38;;
69152;SDS011;56261;51.580;4.578;2022-08-01T03:51:42;16.42;;;7.25;;
69152;SDS011;56261;51.580;4.578;2022-08-01T03:54:10;17.95;;;7.95;;
69152;SDS011;56261;51.580;4.578;2022-08-01T03:56:37;21.05;;;8.20;;
69152;SDS011;56261;51.580;4.578;2022-08-01T03:59:04;17.30;;;8.40;;
69152;SDS011;56261;51.580;4.578;2022-08-01T04:01:31;16.02;;;8.13;;
69152;SDS011;56261;51.580;4.578;2022-08-01T04:04:00;19.50;;;8.80;;
69152;SDS011;56261;51.580;4.578;2022-08-01T04:06:26;14.50;;;7.57;;
69152;SDS011;56261;51.580;4.578;2022-08-01T04:08:51;14.88;;;7.18;;
69152;SDS011;56261;51.580;4.578;2022-08-01T04:11:21;16.70;;;7.63;;
69152;SDS011;56261;51.580;4.578;2022-08-01T04:13:48;16.73;;;8.17;;
69152;SDS011;56261;51.580;4.578;2022-08-01T04:16:14;18.03;;;8.23;;
69152;SDS011;56261;51.580;4.578;2022-08-01T04:18:39;16.60;;;8.20;;
69152;SDS011;56261;51.580;4.578;2022-08-01T04:21:05;18.37;;;8.27;;
69152;SDS011;56261;51.580;4.578;2022-08-01T04:23:30;17.67;;;7.87;;
69152;SDS011;56261;51.580;4.578;2022-08-01T04:25:58;13.23;;;7.35;;
69152;SDS011;56261;51.580;4.578;2022-08-01T04:28:24;16.98;;;8.40;;
69152;SDS011;56261;51.580;4.578;2022-08-01T04:30:52;16.17;;;9.33;;
69152;SDS011;56261;51.580;4.578;2022-08-01T04:33:20;19.38;;;10.18;;
69152;SDS011;56261;51.580;4.578;2022-08-01T04:35:46;16.90;;;10.13;;
69152;SDS011;56261;51.580;4.578;2022-08-01T04:38:15;17.92;;;10.15;;
69152;SDS011;56261;51.580;4.578;2022-08-01T04:40:46;18.45;;;10.07;;
69152;SDS011;56261;51.580;4.578;2022-08-01T04:43:13;17.67;;;10.07;;
69152;SDS011;56261;51.580;4.578;2022-08-01T04:45:39;15.75;;;8.80;;
69152;SDS011;56261;51.580;4.578;2022-08-01T04:48:05;14.70;;;8.05;;
69152;SDS011;56261;51.580;4.578;2022-08-01T04:50:32;13.10;;;7.40;;
69152;SDS011;56261;51.580;4.578;2022-08-01T04:52:59;15.35;;;8.00;;
69152;SDS011;56261;51.580;4.578;2022-08-01T04:55:27;13.70;;;8.13;;
69152;SDS011;56261;51.580;4.578;2022-08-01T04:57:53;14.10;;;7.32;;
69152;SDS011;56261;51.580;4.578;2022-08-01T05:00:19;10.33;;;5.80;;
69152;SDS011;56261;51.580;4.578;2022-08-01T05:02:44;10.23;;;6.00;;
69152;SDS011;56261;51.580;4.578;2022-08-01T05:05:10;8.45;;;4.32;;
69152;SDS011;56261;51.580;4.578;2022-08-01T05:07:35;10.10;;;4.43;;
69152;SDS011;56261;51.580;4.578;2022-08-01T05:10:02;9.23;;;4.40;;
69152;SDS011;56261;51.580;4.578;2022-08-01T05:12:28;8.50;;;3.47;;
69152;SDS011;56261;51.580;4.578;2022-08-01T05:14:54;6.40;;;3.20;;
69152;SDS011;56261;51.580;4.578;2022-08-01T05:17:19;7.17;;;3.00;;
69152;SDS011;56261;51.580;4.578;2022-08-01T05:19:44;8.77;;;3.40;;
69152;SDS011;56261;51.580;4.578;2022-08-01T05:22:10;6.90;;;3.07;;
69152;SDS011;56261;51.580;4.578;2022-08-01T05:24:36;6.65;;;2.83;;
69152;SDS011;56261;51.580;4.578;2022-08-01T05:27:03;5.65;;;2.65;;
69152;SDS011;56261;51.580;4.578;2022-08-01T05:29:29;6.30;;;2.73;;
69152;SDS011;56261;51.580;4.578;2022-08-01T05:31:55;6.03;;;3.00;;
69152;SDS011;56261;51.580;4.578;2022-08-01T05:34:21;8.95;;;3.10;;
69152;SDS011;56261;51.580;4.578;2022-08-01T05:36:46;7.35;;;3.30;;
69152;SDS011;56261;51.580;4.578;2022-08-01T05:39:12;6.33;;;3.20;;
69152;SDS011;56261;51.580;4.578;2022-08-01T05:41:38;9.88;;;3.30;;
69152;SDS011;56261;51.580;4.578;2022-08-01T05:44:04;7.00;;;3.23;;
69152;SDS011;56261;51.580;4.578;2022-08-01T05:46:30;7.20;;;2.08;;
69152;SDS011;56261;51.580;4.578;2022-08-01T05:48:56;5.20;;;2.00;;
69152;SDS011;56261;51.580;4.578;2022-08-01T05:51:23;5.57;;;1.90;;
69152;SDS011;56261;51.580;4.578;2022-08-01T05:53:49;5.07;;;1.57;;
69152;SDS011;56261;51.580;4.578;2022-08-01T05:56:14;7.50;;;2.17;;
69152;SDS011;56261;51.580;4.578;2022-08-01T05:58:39;4.90;;;1.67;;
69152;SDS011;56261;51.580;4.578;2022-08-01T06:01:05;7.07;;;2.20;;
69152;SDS011;56261;51.580;4.578;2022-08-01T06:03:31;7.73;;;2.30;;
69152;SDS011;56261;51.580;4.578;2022-08-01T06:05:58;6.55;;;2.72;;
69152;SDS011;56261;51.580;4.578;2022-08-01T06:08:24;6.38;;;2.75;;
69152;SDS011;56261;51.580;4.578;2022-08-01T06:10:49;8.30;;;3.00;;
69152;SDS011;56261;51.580;4.578;2022-08-01T06:13:14;6.97;;;2.50;;
69152;SDS011;56261;51.580;4.578;2022-08-01T06:15:40;6.00;;;2.43;;
69152;SDS011;56261;51.580;4.578;2022-08-01T06:18:05;5.50;;;1.80;;
69152;SDS011;56261;51.580;4.578;2022-08-01T06:20:31;6.83;;;2.10;;
69152;SDS011;56261;51.580;4.578;2022-08-01T06:22:56;5.13;;;2.37;;
69152;SDS011;56261;51.580;4.578;2022-08-01T06:25:22;4.87;;;2.17;;
69152;SDS011;56261;51.580;4.578;2022-08-01T06:27:47;5.15;;;1.92;;
69152;SDS011;56261;51.580;4.578;2022-08-01T06:30:13;4.73;;;2.27;;
69152;SDS011;56261;51.580;4.578;2022-08-01T06:32:38;8.85;;;2.10;;
69152;SDS011;56261;51.580;4.578;2022-08-01T06:35:04;5.03;;;1.90;;
69152;SDS011;56261;51.580;4.578;2022-08-01T06:37:30;5.67;;;1.83;;
69152;SDS011;56261;51.580;4.578;2022-08-01T06:40:03;6.07;;;1.88;;
69152;SDS011;56261;51.580;4.578;2022-08-01T06:42:29;4.57;;;2.17;;
69152;SDS011;56261;51.580;4.578;2022-08-01T06:47:29;5.10;;;2.30;;
69152;SDS011;56261;51.580;4.578;2022-08-01T06:49:55;5.17;;;1.90;;
69152;SDS011;56261;51.580;4.578;2022-08-01T06:52:20;5.30;;;2.60;;
69152;SDS011;56261;51.580;4.578;2022-08-01T06:54:45;5.77;;;2.80;;
69152;SDS011;56261;51.580;4.578;2022-08-01T06:57:11;5.45;;;3.38;;
69152;SDS011;56261;51.580;4.578;2022-08-01T06:59:36;6.17;;;3.37;;
69152;SDS011;56261;51.580;4.578;2022-08-01T07:02:02;6.90;;;3.60;;
69152;SDS011;56261;51.580;4.578;2022-08-01T07:04:27;6.53;;;3.20;;
69152;SDS011;56261;51.580;4.578;2022-08-01T07:06:52;5.82;;;2.97;;
69152;SDS011;56261;51.580;4.578;2022-08-01T07:09:18;5.53;;;2.47;;
69152;SDS011;56261;51.580;4.578;2022-08-01T07:11:43;5.13;;;2.47;;
69152;SDS011;56261;51.580;4.578;2022-08-01T07:14:09;6.00;;;2.70;;
69152;SDS011;56261;51.580;4.578;2022-08-01T07:16:34;6.05;;;2.38;;
69152;SDS011;56261;51.580;4.578;2022-08-01T07:19:00;7.33;;;2.57;;
69152;SDS011;56261;51.580;4.578;2022-08-01T07:21:25;6.10;;;2.53;;
69152;SDS011;56261;51.580;4.578;2022-08-01T07:23:51;5.70;;;3.07;;
69152;SDS011;56261;51.580;4.578;2022-08-01T07:26:16;5.35;;;2.60;;
69152;SDS011;56261;51.580;4.578;2022-08-01T07:28:42;6.37;;;2.67;;
69152;SDS011;56261;51.580;4.578;2022-08-01T07:31:07;6.78;;;3.08;;
69152;SDS011;56261;51.580;4.578;2022-08-01T07:33:33;6.60;;;2.63;;
69152;SDS011;56261;51.580;4.578;2022-08-01T07:35:58;8.57;;;3.67;;
69152;SDS011;56261;51.580;4.578;2022-08-01T07:38:24;6.20;;;3.93;;
69152;SDS011;56261;51.580;4.578;2022-08-01T07:40:49;6.97;;;4.28;;
69152;SDS011;56261;51.580;4.578;2022-08-01T07:43:14;7.50;;;3.93;;
69152;SDS011;56261;51.580;4.578;2022-08-01T07:45:40;7.27;;;4.17;;
69152;SDS011;56261;51.580;4.578;2022-08-01T07:48:06;7.82;;;4.43;;
69152;SDS011;56261;51.580;4.578;2022-08-01T07:50:32;11.90;;;3.83;;
69152;SDS011;56261;51.580;4.578;2022-08-01T07:52:58;6.33;;;3.63;;
69152;SDS011;56261;51.580;4.578;2022-08-01T07:55:24;5.80;;;3.70;;
69152;SDS011;56261;51.580;4.578;2022-08-01T07:57:51;8.30;;;3.00;;
69152;SDS011;56261;51.580;4.578;2022-08-01T08:00:17;6.20;;;3.15;;
69152;SDS011;56261;51.580;4.578;2022-08-01T08:02:43;7.80;;;3.88;;
69152;SDS011;56261;51.580;4.578;2022-08-01T08:05:09;6.50;;;4.40;;
69152;SDS011;56261;51.580;4.578;2022-08-01T08:07:35;8.70;;;4.70;;
69152;SDS011;56261;51.580;4.578;2022-08-01T08:10:00;7.73;;;4.40;;
69152;SDS011;56261;51.580;4.578;2022-08-01T08:12:26;5.60;;;3.93;;
69152;SDS011;56261;51.580;4.578;2022-08-01T08:14:51;6.47;;;4.03;;
69152;SDS011;56261;51.580;4.578;2022-08-01T08:17:17;7.27;;;4.00;;
69152;SDS011;56261;51.580;4.578;2022-08-01T08:19:42;8.00;;;3.13;;
69152;SDS011;56261;51.580;4.578;2022-08-01T08:22:08;8.77;;;3.10;;
69152;SDS011;56261;51.580;4.578;2022-08-01T08:24:34;5.90;;;3.08;;
69152;SDS011;56261;51.580;4.578;2022-08-01T08:27:00;5.45;;;2.70;;
69152;SDS011;56261;51.580;4.578;2022-08-01T08:29:27;5.43;;;2.65;;
69152;SDS011;56261;51.580;4.578;2022-08-01T08:31:55;5.23;;;2.60;;
69152;SDS011;56261;51.580;4.578;2022-08-01T08:34:21;5.20;;;2.40;;
69152;SDS011;56261;51.580;4.578;2022-08-01T08:36:48;4.13;;;2.17;;
69152;SDS011;56261;51.580;4.578;2022-08-01T08:39:14;4.20;;;1.80;;
69152;SDS011;56261;51.580;4.578;2022-08-01T08:41:40;4.20;;;1.55;;
69152;SDS011;56261;51.580;4.578;2022-08-01T08:44:07;3.58;;;1.50;;
69152;SDS011;56261;51.580;4.578;2022-08-01T08:46:34;4.75;;;2.67;;
69152;SDS011;56261;51.580;4.578;2022-08-01T08:49:10;4.13;;;1.73;;
69152;SDS011;56261;51.580;4.578;2022-08-01T08:51:38;5.15;;;2.00;;
69152;SDS011;56261;51.580;4.578;2022-08-01T08:54:05;4.40;;;1.98;;
69152;SDS011;56261;51.580;4.578;2022-08-01T08:56:32;4.90;;;2.25;;
69152;SDS011;56261;51.580;4.578;2022-08-01T08:59:00;4.97;;;2.10;;
69152;SDS011;56261;51.580;4.578;2022-08-01T09:01:26;5.70;;;2.40;;
69152;SDS011;56261;51.580;4.578;2022-08-01T09:03:52;5.57;;;2.70;;
69152;SDS011;56261;51.580;4.578;2022-08-01T09:06:18;7.78;;;4.00;;
69152;SDS011;56261;51.580;4.578;2022-08-01T09:08:44;8.23;;;4.80;;
69152;SDS011;56261;51.580;4.578;2022-08-01T09:11:09;6.72;;;3.63;;
69152;SDS011;56261;51.580;4.578;2022-08-01T09:13:36;7.57;;;4.07;;
69152;SDS011;56261;51.580;4.578;2022-08-01T09:16:01;5.25;;;3.25;;
69152;SDS011;56261;51.580;4.578;2022-08-01T09:18:39;6.17;;;3.17;;
69152;SDS011;56261;51.580;4.578;2022-08-01T09:23:35;6.50;;;3.13;;
69152;SDS011;56261;51.580;4.578;2022-08-01T09:26:07;6.78;;;2.70;;
69152;SDS011;56261;51.580;4.578;2022-08-01T09:28:43;4.75;;;2.50;;
69152;SDS011;56261;51.580;4.578;2022-08-01T09:31:14;5.82;;;2.80;;
69152;SDS011;56261;51.580;4.578;2022-08-01T09:33:55;4.93;;;2.65;;
69152;SDS011;56261;51.580;4.578;2022-08-01T09:36:24;6.27;;;2.63;;
69152;SDS011;56261;51.580;4.578;2022-08-01T09:38:52;7.30;;;2.92;;
69152;SDS011;56261;51.580;4.578;2022-08-01T09:41:31;6.50;;;3.30;;
69152;SDS011;56261;51.580;4.578;2022-08-01T09:43:57;5.53;;;2.30;;
69152;SDS011;56261;51.580;4.578;2022-08-01T09:46:24;7.22;;;2.60;;
69152;SDS011;56261;51.580;4.578;2022-08-01T09:51:29;5.18;;;2.40;;
69152;SDS011;56261;51.580;4.578;2022-08-01T09:53:55;7.07;;;2.90;;
69152;SDS011;56261;51.580;4.578;2022-08-01T09:56:21;6.90;;;3.30;;
69152;SDS011;56261;51.580;4.578;2022-08-01T10:01:16;5.53;;;2.78;;
69152;SDS011;56261;51.580;4.578;2022-08-01T10:03:41;8.60;;;3.87;;
69152;SDS011;56261;51.580;4.578;2022-08-01T10:06:20;6.60;;;3.07;;
69152;SDS011;56261;51.580;4.578;2022-08-01T10:08:46;10.10;;;3.67;;
69152;SDS011;56261;51.580;4.578;2022-08-01T10:11:12;8.85;;;3.63;;
69152;SDS011;56261;51.580;4.578;2022-08-01T10:13:38;8.23;;;3.43;;
69152;SDS011;56261;51.580;4.578;2022-08-01T10:16:04;7.25;;;3.15;;
69152;SDS011;56261;51.580;4.578;2022-08-01T10:18:33;8.70;;;3.90;;
69152;SDS011;56261;51.580;4.578;2022-08-01T10:21:00;7.75;;;3.45;;
69152;SDS011;56261;51.580;4.578;2022-08-01T10:23:27;9.67;;;3.47;;
69152;SDS011;56261;51.580;4.578;2022-08-01T10:25:58;9.05;;;3.65;;
69152;SDS011;56261;51.580;4.578;2022-08-01T10:28:26;9.75;;;3.50;;
69152;SDS011;56261;51.580;4.578;2022-08-01T10:30:54;8.52;;;3.83;;
69152;SDS011;56261;51.580;4.578;2022-08-01T10:33:23;10.47;;;3.63;;
69152;SDS011;56261;51.580;4.578;2022-08-01T10:35:50;9.95;;;3.70;;
69152;SDS011;56261;51.580;4.578;2022-08-01T10:38:16;8.10;;;3.35;;
69152;SDS011;56261;51.580;4.578;2022-08-01T10:40:42;10.38;;;3.38;;
69152;SDS011;56261;51.580;4.578;2022-08-01T10:43:11;9.25;;;3.50;;
69152;SDS011;56261;51.580;4.578;2022-08-01T10:45:41;7.87;;;3.17;;
69152;SDS011;56261;51.580;4.578;2022-08-01T10:48:12;8.57;;;3.20;;
69152;SDS011;56261;51.580;4.578;2022-08-01T10:50:44;9.95;;;3.60;;
69152;SDS011;56261;51.580;4.578;2022-08-01T10:58:12;8.87;;;3.73;;
69152;SDS011;56261;51.580;4.578;2022-08-01T11:00:38;8.60;;;3.10;;
69152;SDS011;56261;51.580;4.578;2022-08-01T11:03:03;9.50;;;3.50;;
69152;SDS011;56261;51.580;4.578;2022-08-01T11:05:32;9.95;;;3.42;;
69152;SDS011;56261;51.580;4.578;2022-08-01T11:08:07;8.77;;;3.47;;
69152;SDS011;56261;51.580;4.578;2022-08-01T11:10:41;8.97;;;4.03;;
69152;SDS011;56261;51.580;4.578;2022-08-01T11:13:10;10.57;;;4.00;;
69152;SDS011;56261;51.580;4.578;2022-08-01T11:15:39;9.48;;;3.67;;
69152;SDS011;56261;51.580;4.578;2022-08-01T11:20:56;11.52;;;3.63;;
69152;SDS011;56261;51.580;4.578;2022-08-01T11:23:24;9.97;;;3.70;;
69152;SDS011;56261;51.580;4.578;2022-08-01T11:28:21;10.30;;;3.78;;
69152;SDS011;56261;51.580;4.578;2022-08-01T11:38:35;7.50;;;3.30;;
69152;SDS011;56261;51.580;4.578;2022-08-01T11:41:12;9.43;;;4.13;;
69152;SDS011;56261;51.580;4.578;2022-08-01T11:46:52;6.50;;;2.78;;
69152;SDS011;56261;51.580;4.578;2022-08-01T11:52:02;8.57;;;2.90;;
69152;SDS011;56261;51.580;4.578;2022-08-01T11:54:28;10.75;;;3.58;;
69152;SDS011;56261;51.580;4.578;2022-08-01T11:56:59;6.90;;;3.03;;
69152;SDS011;56261;51.580;4.578;2022-08-01T11:59:26;8.18;;;3.20;;
69152;SDS011;56261;51.580;4.578;2022-08-01T12:01:52;10.40;;;3.60;;
69152;SDS011;56261;51.580;4.578;2022-08-01T12:04:18;8.47;;;3.77;;
69152;SDS011;56261;51.580;4.578;2022-08-01T12:06:43;9.25;;;3.55;;
69152;SDS011;56261;51.580;4.578;2022-08-01T12:09:19;8.80;;;3.40;;
69152;SDS011;56261;51.580;4.578;2022-08-01T12:11:47;8.57;;;3.47;;
69152;SDS011;56261;51.580;4.578;2022-08-01T12:14:19;10.57;;;3.30;;
69152;SDS011;56261;51.580;4.578;2022-08-01T12:16:49;9.77;;;2.90;;
69152;SDS011;56261;51.580;4.578;2022-08-01T12:19:20;10.10;;;2.70;;
69152;SDS011;56261;51.580;4.578;2022-08-01T12:24:36;11.20;;;3.38;;
69152;SDS011;56261;51.580;4.578;2022-08-01T12:27:03;9.52;;;2.58;;
69152;SDS011;56261;51.580;4.578;2022-08-01T12:29:40;9.57;;;3.13;;
69152;SDS011;56261;51.580;4.578;2022-08-01T12:34:52;9.07;;;2.60;;
69152;SDS011;56261;51.580;4.578;2022-08-01T12:37:19;9.43;;;2.95;;
69152;SDS011;56261;51.580;4.578;2022-08-01T12:39:45;6.50;;;2.50;;
69152;SDS011;56261;51.580;4.578;2022-08-01T12:42:11;8.57;;;3.40;;
69152;SDS011;56261;51.580;4.578;2022-08-01T12:44:37;8.20;;;2.90;;
69152;SDS011;56261;51.580;4.578;2022-08-01T12:47:05;8.93;;;3.00;;
69152;SDS011;56261;51.580;4.578;2022-08-01T12:49:35;10.07;;;3.13;;
69152;SDS011;56261;51.580;4.578;2022-08-01T12:52:02;9.35;;;2.55;;
69152;SDS011;56261;51.580;4.578;2022-08-01T12:54:28;8.23;;;2.80;;
69152;SDS011;56261;51.580;4.578;2022-08-01T12:56:54;6.63;;;2.60;;
69152;SDS011;56261;51.580;4.578;2022-08-01T12:59:20;10.48;;;2.90;;
69152;SDS011;56261;51.580;4.578;2022-08-01T13:01:51;8.17;;;2.90;;
69152;SDS011;56261;51.580;4.578;2022-08-01T13:04:17;8.73;;;2.53;;
69152;SDS011;56261;51.580;4.578;2022-08-01T13:06:43;9.93;;;2.70;;
69152;SDS011;56261;51.580;4.578;2022-08-01T13:09:09;8.05;;;2.35;;
69152;SDS011;56261;51.580;4.578;2022-08-01T13:11:36;6.03;;;2.30;;
69152;SDS011;56261;51.580;4.578;2022-08-01T13:14:02;8.17;;;2.50;;
69152;SDS011;56261;51.580;4.578;2022-08-01T13:16:27;8.32;;;3.08;;
69152;SDS011;56261;51.580;4.578;2022-08-01T13:18:53;9.37;;;2.50;;
69152;SDS011;56261;51.580;4.578;2022-08-01T13:26:48;7.32;;;3.17;;
69152;SDS011;56261;51.580;4.578;2022-08-01T13:29:36;6.10;;;2.47;;
69152;SDS011;56261;51.580;4.578;2022-08-01T13:32:20;8.00;;;2.95;;
69152;SDS011;56261;51.580;4.578;2022-08-01T13:34:47;6.47;;;2.75;;
69152;SDS011;56261;51.580;4.578;2022-08-01T13:37:13;8.30;;;2.88;;
69152;SDS011;56261;51.580;4.578;2022-08-01T13:39:38;7.60;;;2.80;;
69152;SDS011;56261;51.580;4.578;2022-08-01T13:42:11;7.77;;;2.13;;
69152;SDS011;56261;51.580;4.578;2022-08-01T13:44:38;6.50;;;2.13;;
69152;SDS011;56261;51.580;4.578;2022-08-01T13:47:04;6.43;;;2.30;;
69152;SDS011;56261;51.580;4.578;2022-08-01T13:49:30;8.33;;;2.37;;
69152;SDS011;56261;51.580;4.578;2022-08-01T13:51:56;8.02;;;2.30;;
69152;SDS011;56261;51.580;4.578;2022-08-01T13:54:22;7.53;;;2.40;;
69152;SDS011;56261;51.580;4.578;2022-08-01T13:56:48;11.83;;;2.83;;
69152;SDS011;56261;51.580;4.578;2022-08-01T13:59:14;10.53;;;2.70;;
69152;SDS011;56261;51.580;4.578;2022-08-01T14:01:39;8.17;;;2.30;;
69152;SDS011;56261;51.580;4.578;2022-08-01T14:04:05;10.23;;;2.20;;
69152;SDS011;56261;51.580;4.578;2022-08-01T14:06:30;7.32;;;2.40;;
69152;SDS011;56261;51.580;4.578;2022-08-01T14:08:57;7.60;;;2.40;;
69152;SDS011;56261;51.580;4.578;2022-08-01T14:11:22;10.07;;;2.60;;
69152;SDS011;56261;51.580;4.578;2022-08-01T14:13:48;12.47;;;2.70;;
69152;SDS011;56261;51.580;4.578;2022-08-01T14:16:13;9.57;;;3.00;;
69152;SDS011;56261;51.580;4.578;2022-08-01T14:18:39;11.50;;;2.40;;
69152;SDS011;56261;51.580;4.578;2022-08-01T14:21:05;7.85;;;2.60;;
69152;SDS011;56261;51.580;4.578;2022-08-01T14:23:31;9.00;;;2.22;;
69152;SDS011;56261;51.580;4.578;2022-08-01T14:25:56;9.97;;;2.40;;
69152;SDS011;56261;51.580;4.578;2022-08-01T14:28:22;8.07;;;2.03;;
69152;SDS011;56261;51.580;4.578;2022-08-01T14:30:49;10.00;;;2.33;;
69152;SDS011;56261;51.580;4.578;2022-08-01T14:33:14;12.13;;;3.10;;
69152;SDS011;56261;51.580;4.578;2022-08-01T14:35:40;9.43;;;2.43;;
69152;SDS011;56261;51.580;4.578;2022-08-01T14:38:06;11.15;;;2.70;;
69152;SDS011;56261;51.580;4.578;2022-08-01T14:40:33;9.00;;;2.53;;
69152;SDS011;56261;51.580;4.578;2022-08-01T14:42:59;10.27;;;2.30;;
69152;SDS011;56261;51.580;4.578;2022-08-01T14:45:26;9.48;;;2.60;;
69152;SDS011;56261;51.580;4.578;2022-08-01T14:47:52;6.90;;;2.23;;
69152;SDS011;56261;51.580;4.578;2022-08-01T14:50:18;11.10;;;2.55;;
69152;SDS011;56261;51.580;4.578;2022-08-01T14:52:43;8.43;;;2.60;;
69152;SDS011;56261;51.580;4.578;2022-08-01T14:55:10;7.60;;;2.20;;
69152;SDS011;56261;51.580;4.578;2022-08-01T14:57:37;7.93;;;1.90;;
69152;SDS011;56261;51.580;4.578;2022-08-01T15:00:04;9.83;;;2.20;;
69152;SDS011;56261;51.580;4.578;2022-08-01T15:02:31;9.75;;;2.28;;
69152;SDS011;56261;51.580;4.578;2022-08-01T15:04:57;10.47;;;2.80;;
69152;SDS011;56261;51.580;4.578;2022-08-01T15:07:22;10.77;;;2.53;;
69152;SDS011;56261;51.580;4.578;2022-08-01T15:09:48;9.50;;;2.10;;
69152;SDS011;56261;51.580;4.578;2022-08-01T15:12:13;6.63;;;2.00;;
69152;SDS011;56261;51.580;4.578;2022-08-01T15:14:39;6.88;;;2.10;;
69152;SDS011;56261;51.580;4.578;2022-08-01T15:19:44;7.87;;;2.10;;
69152;SDS011;56261;51.580;4.578;2022-08-01T15:22:10;8.43;;;2.10;;
69152;SDS011;56261;51.580;4.578;2022-08-01T15:24:36;8.73;;;2.10;;
69152;SDS011;56261;51.580;4.578;2022-08-01T15:27:02;8.00;;;2.10;;
69152;SDS011;56261;51.580;4.578;2022-08-01T15:29:28;10.20;;;2.40;;
69152;SDS011;56261;51.580;4.578;2022-08-01T15:31:53;9.60;;;2.17;;
69152;SDS011;56261;51.580;4.578;2022-08-01T15:34:20;9.70;;;2.42;;
69152;SDS011;56261;51.580;4.578;2022-08-01T15:36:46;7.00;;;2.60;;
69152;SDS011;56261;51.580;4.578;2022-08-01T15:39:11;8.17;;;2.67;;
69152;SDS011;56261;51.580;4.578;2022-08-01T15:41:36;9.47;;;2.50;;
69152;SDS011;56261;51.580;4.578;2022-08-01T15:44:02;9.47;;;2.40;;
69152;SDS011;56261;51.580;4.578;2022-08-01T15:46:28;8.02;;;2.38;;
69152;SDS011;56261;51.580;4.578;2022-08-01T15:48:53;8.27;;;2.23;;